Time;durP1;ratioP1;P1;durP2;ratioP2;P2;SDS_P1;SDS_P2;PMS_P1;PMS_P2;Temp;Humidity;BMP_temperature;BMP_pressure;BME280_temperature;BME280_humidity;BME280_pressure;Samples;Min_cycle;Max_cycle;Signal;HPM_P1;HPM_P2
2022/10/03 00:01:33;;;;;;;0.97;0.97;;;;;;;9.92;100.00;101003.09;4992207;28;20169;-77
2022/10/03 00:04:19;;;;;;;3.13;1.07;;;;;;;9.89;100.00;101000.94;4974477;28;20208;-76
2022/10/03 00:07:28;;;;;;;0.97;0.97;;;;;;;9.88;100.00;100997.41;4991724;28;20172;-77
2022/10/03 00:10:16;;;;;;;0.00;0.00;;;;;;;9.86;100.00;101007.00;4964297;28;20216;-78
2022/10/03 00:12:53;;;;;;;9.13;1.63;;;;;;;9.86;100.00;101002.34;4991856;28;20169;-77
2022/10/03 00:15:25;;;;;;;0.00;0.00;;;;;;;9.85;100.00;101000.72;4991842;28;20176;-77
2022/10/03 00:18:21;;;;;;;3.23;2.27;;;;;;;9.82;100.00;101009.47;4992279;28;20169;-78
2022/10/03 00:21:13;;;;;;;1.97;1.80;;;;;;;9.84;100.00;101012.75;4991938;28;20189;-78
2022/10/03 00:24:01;;;;;;;0.07;0.07;;;;;;;9.85;100.00;101008.91;4991816;28;20177;-77
2022/10/03 00:26:51;;;;;;;8.03;0.77;;;;;;;9.81;100.00;101007.84;4983422;28;20227;-77
2022/10/03 00:29:30;;;;;;;3.40;0.73;;;;;;;9.80;100.00;101011.69;4991695;28;20228;-78
2022/10/03 00:32:17;;;;;;;6.40;3.67;;;;;;;9.80;100.00;101014.41;4974171;28;20722;-78
2022/10/03 00:35:01;;;;;;;0.23;0.20;;;;;;;9.81;100.00;101016.84;4995343;28;20180;-77
2022/10/03 00:37:35;;;;;;;0.33;0.33;;;;;;;9.79;100.00;101029.97;5011045;28;20181;-78
2022/10/03 00:40:35;;;;;;;2.57;1.80;;;;;;;9.75;100.00;101025.41;5011297;28;20263;-77
2022/10/03 00:43:23;;;;;;;0.00;0.00;;;;;;;9.79;100.00;101031.91;5017630;28;20207;-78
2022/10/03 00:46:23;;;;;;;3.60;1.80;;;;;;;9.78;100.00;101033.00;5030357;28;20317;-79
2022/10/03 00:49:07;;;;;;;0.73;0.67;;;;;;;9.78;100.00;101038.47;5026165;28;20211;-78
2022/10/03 00:51:37;;;;;;;0.10;0.10;;;;;;;9.76;100.00;101037.94;5030877;28;20179;-78
2022/10/03 00:54:36;;;;;;;0.70;0.53;;;;;;;9.78;100.00;101039.28;5030816;28;20168;-78
2022/10/03 00:57:29;;;;;;;0.00;0.00;;;;;;;9.82;100.00;101039.50;5029308;28;20184;-77
2022/10/03 01:00:16;;;;;;;6.70;0.87;;;;;;;9.84;100.00;101045.50;5029485;28;20436;-77
2022/10/03 01:02:53;;;;;;;16.13;1.67;;;;;;;9.88;100.00;101048.44;5031061;28;20186;-78
2022/10/03 01:05:48;;;;;;;0.00;0.00;;;;;;;9.92;100.00;101058.47;5029699;28;20176;-78
2022/10/03 01:08:55;;;;;;;0.00;0.00;;;;;;;9.96;100.00;101050.50;5011083;28;20223;-78
2022/10/03 01:11:43;;;;;;;1.00;1.00;;;;;;;9.96;100.00;101058.72;5011066;28;20188;-78
2022/10/03 01:14:40;;;;;;;1.90;1.80;;;;;;;9.97;100.00;101060.31;5011469;28;20168;-75
2022/10/03 01:17:47;;;;;;;0.07;0.07;;;;;;;9.95;100.00;101055.16;5010719;28;20267;-75
2022/10/03 01:20:31;;;;;;;3.60;1.20;;;;;;;9.98;100.00;101056.50;5009697;28;20314;-76
2022/10/03 01:23:25;;;;;;;0.60;0.37;;;;;;;9.97;100.00;101058.41;5010907;28;20187;-76
2022/10/03 01:26:05;;;;;;;0.23;0.23;;;;;;;9.95;100.00;101057.09;5010774;28;20173;-76
2022/10/03 01:31:52;;;;;;;0.00;0.00;;;;;;;9.93;100.00;101065.56;5011143;28;20199;-76
2022/10/03 01:34:50;;;;;;;0.00;0.00;;;;;;;9.93;100.00;101075.66;5005255;28;20239;-77
2022/10/03 01:37:37;;;;;;;1.03;1.03;;;;;;;9.93;100.00;101070.22;4996991;28;20219;-78
2022/10/03 01:40:16;;;;;;;0.00;0.00;;;;;;;9.93;100.00;101076.47;5012795;28;20187;-77
2022/10/03 01:43:17;;;;;;;0.47;0.47;;;;;;;9.95;100.00;101071.53;5026242;28;20624;-77
2022/10/03 01:45:55;;;;;;;0.00;0.00;;;;;;;9.96;100.00;101080.53;5010965;28;20172;-78
2022/10/03 01:48:32;;;;;;;0.57;0.57;;;;;;;9.96;100.00;101081.34;5010899;28;20196;-77
2022/10/03 01:51:10;;;;;;;3.30;0.60;;;;;;;10.00;100.00;101082.41;5010882;28;20172;-78
2022/10/03 01:54:00;;;;;;;0.97;0.97;;;;;;;10.02;100.00;101091.13;5010916;28;20176;-75
2022/10/03 01:56:38;;;;;;;0.00;0.00;;;;;;;10.05;100.00;101096.00;5010778;28;20173;-76
2022/10/03 01:59:34;;;;;;;5.17;0.93;;;;;;;10.08;100.00;101089.94;5013288;28;20226;-78
2022/10/03 02:02:16;;;;;;;0.00;0.00;;;;;;;10.11;100.00;101100.28;5015363;28;20620;-75
2022/10/03 02:04:57;;;;;;;0.83;0.83;;;;;;;10.17;100.00;101100.22;5034078;28;20250;-76
2022/10/03 02:07:33;;;;;;;0.33;0.33;;;;;;;10.24;100.00;101095.25;5033815;28;20175;-76
2022/10/03 02:10:05;;;;;;;8.60;0.77;;;;;;;10.30;100.00;101096.81;5034115;28;20218;-75
2022/10/03 02:12:39;;;;;;;0.30;0.30;;;;;;;10.34;100.00;101095.13;5033975;28;20163;-75
2022/10/03 02:15:04;;;;;;;2.67;0.73;;;;;;;10.39;100.00;101105.97;5033926;28;20168;-75
2022/10/03 02:17:46;;;;;;;0.00;0.00;;;;;;;10.46;100.00;101111.91;5033620;28;20171;-76
2022/10/03 02:20:22;;;;;;;0.00;0.00;;;;;;;10.50;100.00;101112.91;5033716;28;20255;-76
2022/10/03 02:22:52;;;;;;;7.07;2.10;;;;;;;10.55;100.00;101118.31;5033865;28;20263;-75
2022/10/03 02:25:48;;;;;;;0.00;0.00;;;;;;;10.56;100.00;101119.97;5033664;28;20176;-76
2022/10/03 02:28:31;;;;;;;0.00;0.00;;;;;;;10.54;100.00;101124.88;5015732;28;20203;-76
2022/10/03 02:31:44;;;;;;;0.00;0.00;;;;;;;10.54;100.00;101122.16;5033566;28;20167;-75
2022/10/03 02:34:25;;;;;;;0.00;0.00;;;;;;;10.52;100.00;101132.56;4987082;28;20188;-75
2022/10/03 02:36:53;;;;;;;0.10;0.10;;;;;;;10.53;100.00;101128.72;5033347;28;20243;-75
2022/10/03 02:39:38;;;;;;;0.57;0.57;;;;;;;10.50;100.00;101129.31;5032093;28;20187;-75
2022/10/03 02:42:30;;;;;;;0.10;0.10;;;;;;;10.52;100.00;101132.56;5015775;28;20532;-75
2022/10/03 02:45:25;;;;;;;0.00;0.00;;;;;;;10.52;100.00;101129.81;5033046;28;20490;-76
2022/10/03 02:47:50;;;;;;;3.33;0.30;;;;;;;10.52;100.00;101118.09;5009343;28;20295;-76
2022/10/03 02:50:49;;;;;;;22.70;1.33;;;;;;;10.52;100.00;101134.47;5033516;28;20267;-76
2022/10/03 02:53:28;;;;;;;10.00;1.37;;;;;;;10.51;100.00;101143.78;5033204;28;20660;-76
2022/10/03 02:56:05;;;;;;;0.77;0.40;;;;;;;10.46;100.00;101147.41;5032885;28;20164;-75
2022/10/03 02:59:01;;;;;;;0.40;0.40;;;;;;;10.41;100.00;101142.84;5033058;28;20183;-76
2022/10/03 03:02:03;;;;;;;0.00;0.00;;;;;;;10.38;100.00;101142.59;5033050;28;20171;-76
2022/10/03 03:04:50;;;;;;;0.20;0.20;;;;;;;10.36;100.00;101150.25;5032208;28;20669;-75
2022/10/03 03:07:37;;;;;;;0.00;0.00;;;;;;;10.41;100.00;101158.38;5032772;28;20632;-75
2022/10/03 03:10:14;;;;;;;0.00;0.00;;;;;;;10.47;100.00;101146.31;5032385;28;20168;-74
2022/10/03 03:13:25;;;;;;;0.00;0.00;;;;;;;10.53;100.00;101149.75;5032814;28;20534;-75
2022/10/03 03:16:21;;;;;;;9.33;0.30;;;;;;;10.58;100.00;101152.44;5032750;28;20493;-75
2022/10/03 03:19:05;;;;;;;0.47;0.47;;;;;;;10.61;100.00;101149.94;5032731;28;20530;-75
2022/10/03 03:21:43;;;;;;;1.90;1.80;;;;;;;10.63;100.00;101152.38;5032623;28;20160;-77
2022/10/03 03:24:20;;;;;;;0.47;0.30;;;;;;;10.63;100.00;101152.38;5014646;28;20168;-76
2022/10/03 03:27:00;;;;;;;1.27;1.17;;;;;;;10.65;100.00;101153.69;5032417;28;20210;-75
2022/10/03 03:29:45;;;;;;;0.50;0.50;;;;;;;10.65;100.00;101153.69;5032267;28;20199;-76
2022/10/03 03:32:21;;;;;;;15.73;2.17;;;;;;;10.63;100.00;101155.91;5032507;28;20174;-75
2022/10/03 03:35:18;;;;;;;1.60;0.93;;;;;;;10.61;100.00;101157.31;5014338;28;20172;-76
2022/10/03 03:37:59;;;;;;;0.77;0.77;;;;;;;10.57;100.00;101153.56;5031936;28;20266;-76
2022/10/03 03:41:01;;;;;;;1.17;0.83;;;;;;;10.55;100.00;101164.75;5032656;28;20255;-76
2022/10/03 03:43:58;;;;;;;7.53;0.10;;;;;;;10.55;100.00;101172.13;5032112;28;20202;-76
2022/10/03 03:46:41;;;;;;;4.23;1.60;;;;;;;10.54;100.00;101167.78;5031575;28;20538;-75
2022/10/03 03:49:28;;;;;;;1.23;1.20;;;;;;;10.49;100.00;101168.66;5014252;28;20285;-75
2022/10/03 03:52:08;;;;;;;0.47;0.33;;;;;;;10.46;100.00;101163.78;5031945;28;20186;-75
2022/10/03 03:54:43;;;;;;;11.13;1.03;;;;;;;10.42;100.00;101154.56;5031776;28;20247;-75
2022/10/03 03:57:36;;;;;;;0.17;0.17;;;;;;;10.41;100.00;101161.97;5031613;28;20214;-75
2022/10/03 04:00:14;;;;;;;6.23;0.30;;;;;;;10.36;100.00;101169.38;5031808;28;20172;-76
2022/10/03 04:02:45;;;;;;;13.13;3.50;;;;;;;10.32;100.00;101165.63;5031479;28;20218;-76
2022/10/03 04:05:46;;;;;;;15.60;0.73;;;;;;;10.26;100.00;101174.97;5031327;28;20187;-75
2022/10/03 04:08:20;;;;;;;1.50;0.87;;;;;;;10.24;100.00;101175.25;4997721;28;20310;-75
2022/10/03 04:11:17;;;;;;;5.47;1.20;;;;;;;10.22;100.00;101172.00;5031531;28;20198;-76
2022/10/03 04:13:55;;;;;;;4.50;1.13;;;;;;;10.23;100.00;101176.34;5031759;28;20160;-76
2022/10/03 04:19:50;;;;;;;0.37;0.37;;;;;;;10.22;100.00;101180.19;5030847;28;20187;-74
2022/10/03 04:22:45;;;;;;;1.80;1.00;;;;;;;10.20;100.00;101176.09;5012699;28;20179;-75
2022/10/03 04:25:37;;;;;;;11.67;2.43;;;;;;;10.18;100.00;101181.84;5031459;28;20167;-74
2022/10/03 04:28:12;;;;;;;4.00;0.27;;;;;;;10.18;100.00;101181.03;5031110;28;20202;-76
2022/10/03 04:31:15;;;;;;;2.73;1.00;;;;;;;10.17;100.00;101190.34;5031184;28;20156;-76
2022/10/03 04:33:50;;;;;;;2.90;0.70;;;;;;;10.16;100.00;101186.00;5029782;28;20175;-75
2022/10/03 04:36:54;;;;;;;1.70;0.40;;;;;;;10.13;100.00;101185.47;5029809;28;20219;-76
2022/10/03 04:39:38;;;;;;;0.83;0.83;;;;;;;10.15;100.00;101185.16;5013300;28;20561;-75
2022/10/03 04:42:38;;;;;;;0.60;0.23;;;;;;;10.15;100.00;101190.63;5031003;28;20160;-76
2022/10/03 04:45:10;;;;;;;2.00;1.03;;;;;;;10.11;100.00;101187.66;5029780;28;20541;-76
2022/10/03 04:47:56;;;;;;;1.47;1.23;;;;;;;10.14;100.00;101181.63;5031050;28;20184;-76
2022/10/03 04:50:41;;;;;;;3.03;1.40;;;;;;;10.19;100.00;101180.75;5013152;28;20655;-76
2022/10/03 04:53:22;;;;;;;0.73;0.67;;;;;;;10.22;100.00;101185.66;5030762;28;20582;-75
2022/10/03 04:56:11;;;;;;;0.67;0.67;;;;;;;10.25;100.00;101193.25;5030471;28;20529;-75
2022/10/03 04:58:52;;;;;;;0.03;0.03;;;;;;;10.29;100.00;101198.97;5030816;28;20199;-76
2022/10/03 05:01:39;;;;;;;2.10;1.07;;;;;;;10.32;100.00;101193.75;5012879;28;20517;-76
2022/10/03 05:04:54;;;;;;;1.40;1.30;;;;;;;10.36;100.00;101197.50;5030382;28;20179;-76
2022/10/03 05:07:31;;;;;;;0.00;0.00;;;;;;;10.39;100.00;101201.56;5013128;28;20669;-76
2022/10/03 05:10:28;;;;;;;0.40;0.40;;;;;;;10.43;100.00;101208.09;5030568;28;20209;-76
2022/10/03 05:13:04;;;;;;;0.60;0.33;;;;;;;10.43;100.00;101203.44;5030609;28;20160;-75
2022/10/03 05:15:50;;;;;;;0.70;0.70;;;;;;;10.45;100.00;101202.34;5030397;28;20203;-76
2022/10/03 05:18:29;;;;;;;8.70;0.97;;;;;;;10.47;100.00;101208.31;5030547;28;20172;-75
2022/10/03 05:21:07;;;;;;;0.00;0.00;;;;;;;10.46;100.00;101206.69;5012917;28;20190;-76
2022/10/03 05:23:43;;;;;;;0.00;0.00;;;;;;;10.44;100.00;101207.00;5030442;28;20160;-75
2022/10/03 05:26:28;;;;;;;1.70;0.77;;;;;;;10.42;100.00;101211.94;5030248;28;20240;-76
2022/10/03 05:29:14;;;;;;;0.37;0.37;;;;;;;10.38;100.00;101219.88;5030367;28;20271;-76
2022/10/03 05:31:48;;;;;;;0.33;0.33;;;;;;;10.33;100.00;101217.22;5030304;28;20175;-76
2022/10/03 05:34:24;;;;;;;3.30;1.30;;;;;;;10.31;100.00;101221.34;5034318;28;20677;-75
2022/10/03 05:37:23;;;;;;;2.90;0.60;;;;;;;10.27;100.00;101223.00;5034160;28;20163;-76
2022/10/03 05:39:58;;;;;;;15.40;0.40;;;;;;;10.25;100.00;101225.22;5033000;28;20505;-76
2022/10/03 05:42:38;;;;;;;2.53;2.03;;;;;;;10.22;100.00;101225.81;5034173;28;20171;-76
2022/10/03 05:45:30;;;;;;;0.23;0.23;;;;;;;10.23;100.00;101227.44;5034386;28;20512;-75
2022/10/03 05:48:14;;;;;;;2.40;1.40;;;;;;;10.20;100.00;101230.72;5033907;28;20203;-76
2022/10/03 05:51:11;;;;;;;0.23;0.23;;;;;;;10.18;100.00;101239.19;5034316;28;20640;-76
2022/10/03 05:54:22;;;;;;;1.13;1.13;;;;;;;10.19;100.00;101251.75;5034036;28;20258;-75
2022/10/03 05:57:30;;;;;;;0.73;0.73;;;;;;;10.18;100.00;101252.03;5033773;28;20266;-77
2022/10/03 06:00:15;;;;;;;8.10;2.23;;;;;;;10.16;100.00;101246.88;5033795;28;20554;-75
2022/10/03 06:02:58;;;;;;;0.37;0.37;;;;;;;10.17;100.00;101255.88;5033712;28;20211;-75
2022/10/03 06:05:54;;;;;;;8.50;0.63;;;;;;;10.13;100.00;101255.66;5033716;28;20171;-76
2022/10/03 06:08:44;;;;;;;4.80;2.30;;;;;;;10.12;100.00;101252.06;5033693;28;20547;-75
2022/10/03 06:11:45;;;;;;;0.30;0.30;;;;;;;10.11;100.00;101264.09;5033675;28;20180;-76
2022/10/03 06:14:26;;;;;;;0.47;0.47;;;;;;;10.10;100.00;101257.00;5021452;28;20255;-75
2022/10/03 06:16:54;;;;;;;0.93;0.73;;;;;;;10.09;100.00;101265.50;5013514;28;20654;-77
2022/10/03 06:19:47;;;;;;;3.30;2.37;;;;;;;10.08;100.00;101261.13;5014038;28;20525;-75
2022/10/03 06:22:21;;;;;;;4.73;1.80;;;;;;;10.08;100.00;101266.59;5026480;28;20180;-73
2022/10/03 06:25:08;;;;;;;0.30;0.30;;;;;;;10.09;100.00;101260.03;5033558;28;20178;-75
2022/10/03 06:28:03;;;;;;;0.43;0.43;;;;;;;10.14;100.00;101268.19;5033317;28;20612;-76
2022/10/03 06:30:47;;;;;;;0.57;0.47;;;;;;;10.17;100.00;101266.81;5015676;28;20221;-77
2022/10/03 06:33:39;;;;;;;1.97;1.27;;;;;;;10.20;100.00;101277.13;5015595;28;20207;-75
2022/10/03 06:36:29;;;;;;;4.33;0.50;;;;;;;10.23;100.00;101277.41;5032991;28;20176;-75
2022/10/03 06:39:25;;;;;;;1.00;0.97;;;;;;;10.24;100.00;101280.94;5027180;28;20189;-76
2022/10/03 06:42:28;;;;;;;0.53;0.47;;;;;;;10.25;100.00;101279.84;5002049;28;20193;-76
2022/10/03 06:45:14;;;;;;;0.33;0.33;;;;;;;10.25;100.00;101279.84;4993243;28;20185;-88
2022/10/03 06:48:17;;;;;;;5.07;0.73;;;;;;;10.29;100.00;101294.56;4999633;28;20172;-72
2022/10/03 06:51:06;;;;;;;0.43;0.43;;;;;;;10.31;100.00;101284.97;5013098;28;20180;-75
2022/10/03 06:53:47;;;;;;;1.33;0.87;;;;;;;10.38;100.00;101284.63;5020954;28;20274;-77
2022/10/03 06:56:39;;;;;;;0.10;0.10;;;;;;;10.41;100.00;101279.41;5012650;28;20682;-75
2022/10/03 06:59:34;;;;;;;0.73;0.70;;;;;;;10.45;100.00;101282.38;4995259;28;20585;-75
2022/10/03 07:02:37;;;;;;;1.30;1.20;;;;;;;10.45;100.00;101278.84;4987810;28;20218;-75
2022/10/03 07:05:21;;;;;;;12.73;2.10;;;;;;;10.42;100.00;101281.03;5013113;28;20191;-76
2022/10/03 07:08:24;;;;;;;9.17;1.10;;;;;;;10.49;100.00;101288.06;5012387;28;20184;-76
2022/10/03 07:11:06;;;;;;;1.63;1.23;;;;;;;10.56;100.00;101289.38;5012668;28;20235;-77
2022/10/03 07:13:43;;;;;;;2.33;1.33;;;;;;;10.68;100.00;101291.66;5012750;28;20192;-75
2022/10/03 07:16:19;;;;;;;6.27;0.83;;;;;;;10.81;100.00;101295.63;5012301;28;20187;-76
2022/10/03 07:19:11;;;;;;;2.37;2.00;;;;;;;10.86;100.00;101301.84;5012466;28;20173;-74
2022/10/03 07:22:29;;;;;;;0.73;0.73;;;;;;;10.89;100.00;101298.53;4994590;28;20680;-75
2022/10/03 07:25:19;;;;;;;0.30;0.30;;;;;;;10.92;100.00;101306.16;5000402;28;20233;-78
2022/10/03 07:28:15;;;;;;;3.93;0.50;;;;;;;10.92;100.00;101297.94;5031625;28;20180;-76
2022/10/03 07:31:04;;;;;;;0.73;0.73;;;;;;;10.97;100.00;101303.34;5031990;28;20179;-76
2022/10/03 07:33:48;;;;;;;0.07;0.07;;;;;;;11.05;100.00;101312.81;5031273;28;20559;-77
2022/10/03 07:39:22;;;;;;;0.53;0.30;;;;;;;11.29;100.00;101310.06;5031917;28;20226;-76
2022/10/03 07:42:26;;;;;;;0.10;0.10;;;;;;;11.36;100.00;101317.88;5030484;28;20369;-76
2022/10/03 07:45:00;;;;;;;0.37;0.37;;;;;;;11.39;100.00;101320.84;5031783;28;20225;-77
2022/10/03 07:47:56;;;;;;;6.43;1.47;;;;;;;11.34;100.00;101323.66;5013421;28;20707;-75
2022/10/03 07:51:00;;;;;;;7.00;2.03;;;;;;;11.35;100.00;101328.00;5027273;28;20180;-77
2022/10/03 07:54:04;;;;;;;0.30;0.03;;;;;;;11.43;100.00;101335.56;5010712;28;20278;-76
2022/10/03 07:56:53;;;;;;;0.97;0.87;;;;;;;11.52;100.00;101332.97;4991296;28;20195;-78
2022/10/03 07:59:52;;;;;;;0.67;0.67;;;;;;;11.61;100.00;101333.94;5011882;28;20184;-75
2022/10/03 08:02:43;;;;;;;10.73;0.60;;;;;;;11.72;100.00;101329.13;4994200;28;20706;-78
2022/10/03 08:05:47;;;;;;;1.20;1.10;;;;;;;11.74;100.00;101338.69;5011742;28;20267;-80
2022/10/03 08:08:27;;;;;;;0.20;0.20;;;;;;;11.86;100.00;101335.50;4935002;29;20205;-78
2022/10/03 08:11:26;;;;;;;4.33;2.17;;;;;;;11.94;100.00;101336.75;4950976;29;20221;-76
2022/10/03 08:14:00;;;;;;;0.10;0.10;;;;;;;12.07;100.00;101345.03;4999334;28;20726;-77
2022/10/03 08:16:39;;;;;;;1.07;0.80;;;;;;;12.19;100.00;101350.03;5011476;28;20175;-75
2022/10/03 08:19:43;;;;;;;0.30;0.30;;;;;;;12.31;100.00;101344.91;5011707;28;20176;-76
2022/10/03 08:22:30;;;;;;;0.07;0.07;;;;;;;12.34;100.00;101352.50;4994571;28;20507;-72
2022/10/03 08:25:28;;;;;;;0.27;0.27;;;;;;;12.42;100.00;101360.03;5011725;28;20169;-72
2022/10/03 08:28:19;;;;;;;1.07;0.37;;;;;;;12.41;100.00;101355.66;5011623;28;20413;-73
2022/10/03 08:31:16;;;;;;;0.73;0.73;;;;;;;12.41;100.00;101358.41;5011566;28;20243;-74
2022/10/03 08:34:05;;;;;;;0.83;0.43;;;;;;;12.55;100.00;101363.09;5021029;28;20416;-69
2022/10/03 08:37:01;;;;;;;3.20;0.77;;;;;;;12.65;100.00;101360.19;5031010;28;20188;-73
2022/10/03 08:39:54;;;;;;;14.63;0.40;;;;;;;12.81;100.00;101354.09;5031130;28;20183;-72
2022/10/03 08:42:41;;;;;;;1.50;1.43;;;;;;;12.95;100.00;101362.34;5013448;28;20868;-73
2022/10/03 08:45:09;;;;;;;0.33;0.33;;;;;;;13.00;100.00;101367.69;5031116;28;20164;-72
2022/10/03 08:48:12;;;;;;;0.10;0.10;;;;;;;13.13;100.00;101373.50;5030785;28;20180;-72
2022/10/03 08:50:46;;;;;;;0.77;0.57;;;;;;;13.01;100.00;101355.63;5031273;28;20249;-73
2022/10/03 08:53:40;;;;;;;1.13;1.03;;;;;;;12.91;100.00;101366.00;5029708;28;20171;-74
2022/10/03 08:56:18;;;;;;;1.20;0.20;;;;;;;12.92;100.00;101368.44;5025577;28;20184;-73
2022/10/03 08:59:11;;;;;;;1.30;0.97;;;;;;;13.02;100.00;101370.97;5004995;28;20705;-74
2022/10/03 09:01:58;;;;;;;1.13;0.17;;;;;;;13.10;100.00;101362.03;5028591;28;20235;-71
2022/10/03 09:04:41;;;;;;;0.00;0.00;;;;;;;13.23;100.00;101365.09;5025855;28;20662;-74
2022/10/03 09:07:37;;;;;;;4.90;1.40;;;;;;;13.36;99.97;101364.28;5030316;28;20203;-74
2022/10/03 09:10:34;;;;;;;0.10;0.10;;;;;;;13.48;99.09;101370.06;5031231;28;20237;-73
2022/10/03 09:13:32;;;;;;;4.53;1.10;;;;;;;13.56;97.70;101371.25;5029014;28;20651;-74
2022/10/03 09:16:03;;;;;;;0.00;0.00;;;;;;;13.69;97.00;101371.19;4996478;28;20271;-76
2022/10/03 09:18:54;;;;;;;4.10;0.50;;;;;;;13.79;96.63;101380.34;5010983;28;20287;-77
2022/10/03 09:21:25;;;;;;;0.60;0.60;;;;;;;13.86;95.28;101375.22;5030383;28;20241;-72
2022/10/03 09:24:22;;;;;;;0.00;0.00;;;;;;;13.98;95.17;101370.81;5030640;28;20182;-72
2022/10/03 09:27:24;;;;;;;0.00;0.00;;;;;;;14.04;94.37;101377.00;5030544;28;20183;-72
2022/10/03 09:30:02;;;;;;;0.00;0.00;;;;;;;14.08;93.90;101375.25;5030356;28;20674;-72
2022/10/03 09:32:54;;;;;;;0.00;0.00;;;;;;;14.08;92.71;101378.00;5019846;28;20238;-73
2022/10/03 09:36:03;;;;;;;0.30;0.30;;;;;;;14.24;92.95;101379.25;5010803;28;20176;-74
2022/10/03 09:38:37;;;;;;;0.83;0.67;;;;;;;14.27;91.62;101380.56;5009221;28;20246;-72
2022/10/03 09:41:27;;;;;;;2.30;0.30;;;;;;;14.29;91.30;101384.59;5010787;28;20624;-72
2022/10/03 09:44:16;;;;;;;2.63;0.87;;;;;;;14.29;90.97;101373.59;5010801;28;20177;-74
2022/10/03 09:47:21;;;;;;;1.20;1.10;;;;;;;14.44;90.54;101385.38;5004895;28;20645;-75
2022/10/03 09:50:20;;;;;;;1.60;0.37;;;;;;;14.48;89.29;101383.63;5010719;28;20247;-74
2022/10/03 09:53:01;;;;;;;0.20;0.20;;;;;;;14.40;88.95;101387.09;5010708;28;20659;-72
2022/10/03 09:56:00;;;;;;;0.07;0.07;;;;;;;14.21;88.58;101379.88;5010690;28;20625;-72
2022/10/03 09:59:17;;;;;;;2.10;0.37;;;;;;;14.22;89.74;101386.19;4990660;28;20193;-71
2022/10/03 10:02:02;;;;;;;0.40;0.40;;;;;;;14.26;89.57;101382.47;4998229;28;20648;-71
2022/10/03 10:04:56;;;;;;;0.00;0.00;;;;;;;14.41;90.54;101396.97;4993573;28;20200;-72
2022/10/03 10:07:51;;;;;;;7.33;1.60;;;;;;;14.44;90.38;101388.94;4990186;28;20325;-72
2022/10/03 10:10:32;;;;;;;0.10;0.10;;;;;;;14.35;89.21;101396.31;4989133;28;20196;-72
2022/10/03 10:13:03;;;;;;;0.07;0.03;;;;;;;14.35;88.71;101385.31;5009776;28;20635;-72
2022/10/03 10:15:28;;;;;;;1.10;0.57;;;;;;;14.38;88.42;101392.09;5010442;28;20173;-71
2022/10/03 10:18:32;;;;;;;0.80;0.80;;;;;;;14.39;89.15;101385.47;5010274;28;20194;-72
2022/10/03 10:21:16;;;;;;;0.93;0.07;;;;;;;14.47;89.35;101382.03;5010052;28;20227;-72
2022/10/03 10:24:18;;;;;;;3.70;0.53;;;;;;;14.50;88.92;101386.88;5013122;28;20238;-72
2022/10/03 10:27:11;;;;;;;1.40;0.20;;;;;;;14.56;88.81;101386.41;5016627;28;20590;-72
2022/10/03 10:30:18;;;;;;;0.57;0.40;;;;;;;14.55;88.14;101395.81;5013158;28;20262;-73
2022/10/03 10:33:11;;;;;;;0.00;0.00;;;;;;;14.45;86.85;101387.81;4995619;28;20242;-72
2022/10/03 10:36:05;;;;;;;2.37;0.73;;;;;;;14.40;86.47;101378.84;4999826;28;20195;-73
2022/10/03 10:38:45;;;;;;;11.63;0.37;;;;;;;14.29;86.29;101376.34;5013053;28;20212;-71
2022/10/03 10:41:37;;;;;;;15.80;3.10;;;;;;;14.30;87.68;101372.47;5011996;28;20324;-72
2022/10/03 10:44:28;;;;;;;1.70;0.60;;;;;;;14.43;88.84;101373.53;5013140;28;20184;-71
2022/10/03 10:47:30;;;;;;;2.20;0.23;;;;;;;14.40;86.43;101376.09;5005663;28;20302;-71
2022/10/03 10:50:20;;;;;;;0.00;0.00;;;;;;;14.45;86.80;101378.75;5005209;28;20207;-72
2022/10/03 10:53:05;;;;;;;0.50;0.50;;;;;;;14.52;87.44;101370.88;5012985;28;20231;-71
2022/10/03 10:55:53;;;;;;;0.87;0.80;;;;;;;14.54;86.74;101372.19;5012387;28;20631;-71
2022/10/03 10:58:30;;;;;;;0.23;0.10;;;;;;;14.60;87.23;101370.09;5012780;28;20184;-72
2022/10/03 11:01:20;;;;;;;0.33;0.33;;;;;;;14.62;86.17;101375.31;5012165;28;20663;-73
2022/10/03 11:04:06;;;;;;;1.07;0.40;;;;;;;14.69;85.04;101375.66;5012336;28;20188;-73
2022/10/03 11:06:41;;;;;;;17.17;1.13;;;;;;;14.86;85.39;101362.78;5020511;28;20188;-76
2022/10/03 11:09:43;;;;;;;0.00;0.00;;;;;;;14.99;84.49;101369.31;5012540;28;20760;-73
2022/10/03 11:12:46;;;;;;;0.83;0.67;;;;;;;15.06;83.96;101366.09;5008748;28;20620;-73
2022/10/03 11:15:36;;;;;;;0.63;0.20;;;;;;;15.05;82.70;101373.56;5009750;28;20638;-72
2022/10/03 11:18:39;;;;;;;1.93;0.67;;;;;;;15.04;82.40;101379.34;5032254;28;20250;-72
2022/10/03 11:21:29;;;;;;;0.90;0.50;;;;;;;15.01;81.79;101371.72;5032231;28;20240;-73
2022/10/03 11:24:23;;;;;;;0.10;0.10;;;;;;;15.00;81.98;101370.94;5013905;28;20183;-73
2022/10/03 11:27:06;;;;;;;0.47;0.47;;;;;;;15.05;81.94;101368.06;5031872;28;20230;-72
2022/10/03 11:30:09;;;;;;;0.00;0.00;;;;;;;15.03;81.48;101369.47;5031931;28;20207;-73
2022/10/03 11:33:00;;;;;;;3.50;0.40;;;;;;;15.04;82.32;101357.34;5014157;28;20660;-73
2022/10/03 11:36:03;;;;;;;0.00;0.00;;;;;;;14.99;81.92;101351.97;4975248;28;20392;-74
2022/10/03 11:38:39;;;;;;;0.00;0.00;;;;;;;14.96;82.58;101358.94;4992664;28;20188;-72
2022/10/03 11:41:31;;;;;;;0.00;0.00;;;;;;;15.18;84.38;101364.34;4992692;28;20192;-74
2022/10/03 11:44:26;;;;;;;0.63;0.63;;;;;;;15.26;83.78;101359.19;4992764;28;20177;-75
2022/10/03 11:47:16;;;;;;;16.90;1.90;;;;;;;15.36;81.25;101358.91;4974873;28;20186;-73
2022/10/03 11:50:06;;;;;;;1.10;0.33;;;;;;;15.43;81.09;101368.28;4991102;28;20243;-73
2022/10/03 11:52:58;;;;;;;0.00;0.00;;;;;;;15.60;78.89;101366.72;4992658;28;20209;-73
2022/10/03 11:55:26;;;;;;;1.17;0.33;;;;;;;15.84;78.17;101367.06;4975074;28;20651;-72
2022/10/03 11:58:07;;;;;;;3.07;0.37;;;;;;;15.82;76.77;101371.28;4992512;28;20177;-72
2022/10/03 12:00:35;;;;;;;0.60;0.27;;;;;;;15.83;77.03;101354.44;4992396;28;20242;-72
2022/10/03 12:03:12;;;;;;;0.40;0.10;;;;;;;15.84;75.69;101361.56;4991294;28;20208;-72
2022/10/03 12:09:13;;;;;;;0.00;0.00;;;;;;;15.67;74.71;101350.53;5031443;28;20254;-72
2022/10/03 12:11:54;;;;;;;2.77;0.67;;;;;;;15.50;74.66;101348.56;5031200;28;20697;-69
2022/10/03 12:14:28;;;;;;;0.00;0.00;;;;;;;15.38;77.35;101351.94;5031212;28;20482;-72
2022/10/03 12:17:14;;;;;;;10.93;0.83;;;;;;;15.31;78.72;101353.53;5030970;28;20180;-69
2022/10/03 12:19:53;;;;;;;0.10;0.10;;;;;;;15.21;77.99;101357.41;5030895;28;20199;-70
2022/10/03 12:22:35;;;;;;;0.43;0.43;;;;;;;15.05;77.37;101357.03;5030846;28;20180;-69
2022/10/03 12:25:17;;;;;;;0.10;0.10;;;;;;;14.93;77.10;101353.28;5031222;28;20760;-70
2022/10/03 12:27:47;;;;;;;1.60;1.00;;;;;;;14.86;77.74;101354.53;5031263;28;20242;-69
2022/10/03 12:30:16;;;;;;;0.00;0.00;;;;;;;14.83;78.41;101352.41;5030857;28;20925;-73
2022/10/03 12:32:44;;;;;;;0.00;0.00;;;;;;;14.83;78.41;101349.66;5030838;28;20230;-70
2022/10/03 12:35:28;;;;;;;0.00;0.00;;;;;;;14.91;80.04;101356.34;5031004;28;20270;-73
2022/10/03 12:38:19;;;;;;;0.13;0.13;;;;;;;15.01;80.12;101355.22;5030842;28;20241;-73
2022/10/03 12:41:11;;;;;;;0.00;0.00;;;;;;;15.07;80.27;101356.72;5019486;28;20184;-73
2022/10/03 12:43:45;;;;;;;0.00;0.00;;;;;;;15.13;80.56;101350.72;5002747;28;20598;-74
2022/10/03 12:46:26;;;;;;;0.10;0.10;;;;;;;15.15;80.80;101353.16;5020295;28;20641;-73
2022/10/03 12:49:02;;;;;;;0.50;0.40;;;;;;;15.08;80.37;101352.84;5010901;28;20330;-73
2022/10/03 12:51:54;;;;;;;0.63;0.43;;;;;;;14.99;78.55;101340.97;5023276;28;20270;-71
2022/10/03 12:54:30;;;;;;;0.00;0.00;;;;;;;15.00;80.10;101357.16;5027832;28;20211;-73
2022/10/03 12:57:25;;;;;;;0.10;0.10;;;;;;;14.97;80.09;101344.03;5030465;28;20580;-74
2022/10/03 13:00:23;;;;;;;0.00;0.00;;;;;;;14.99;80.19;101351.97;5030628;28;20172;-73
2022/10/03 13:03:06;;;;;;;0.00;0.00;;;;;;;15.02;80.47;101345.84;4986452;28;20604;-75
2022/10/03 13:05:38;;;;;;;0.00;0.00;;;;;;;15.04;80.27;101343.56;5030202;28;20199;-72